createdAt,value
2022-11-20T00:02:01.798Z,2.95
2022-11-20T00:04:33.985Z,2.98
2022-11-20T00:07:03.664Z,2.96
2022-11-20T00:09:33.302Z,2.96
2022-11-20T00:12:02.888Z,2.99
2022-11-20T00:14:32.444Z,3.04
2022-11-20T00:17:02.019Z,3.03
2022-11-20T00:19:34.151Z,3.04
2022-11-20T00:22:03.895Z,3.08
2022-11-20T00:24:33.592Z,3.10
2022-11-20T00:27:03.186Z,3.10
2022-11-20T00:29:32.748Z,3.10
2022-11-20T00:32:02.338Z,3.09
2022-11-20T00:34:34.464Z,3.05
2022-11-20T00:37:04.064Z,3.03
2022-11-20T00:39:33.600Z,3.02
2022-11-20T00:42:03.186Z,3.02
2022-11-20T00:44:32.991Z,3.04
2022-11-20T00:47:02.764Z,3.06
2022-11-20T00:49:34.972Z,3.07
2022-11-20T00:52:04.568Z,3.07
2022-11-20T00:54:34.136Z,3.08
2022-11-20T00:57:03.699Z,3.09
2022-11-20T00:59:33.322Z,3.08
2022-11-20T01:02:02.864Z,3.07
2022-11-20T01:04:35.189Z,3.07
2022-11-20T01:07:04.803Z,3.07
2022-11-20T01:09:34.554Z,3.06
2022-11-20T01:12:04.158Z,3.05
2022-11-20T01:14:33.736Z,3.03
2022-11-20T01:17:03.343Z,3.04
2022-11-20T01:19:35.630Z,3.04
2022-11-20T01:22:05.216Z,3.07
2022-11-20T01:24:34.866Z,3.05
2022-11-20T01:27:04.388Z,3.05
2022-11-20T01:29:34.326Z,3.07
2022-11-20T01:32:03.869Z,3.10
2022-11-20T01:34:36.563Z,3.14
2022-11-20T01:37:06.158Z,3.14
2022-11-20T01:39:35.724Z,3.15
2022-11-20T01:42:17.747Z,3.15
2022-11-20T01:44:52.388Z,3.15
2022-11-20T01:47:25.758Z,3.13
2022-11-20T01:50:00.922Z,3.13
2022-11-20T01:52:34.301Z,3.15
2022-11-20T01:55:07.043Z,3.16
2022-11-20T01:57:38.176Z,3.15
2022-11-20T02:00:11.689Z,3.15
2022-11-20T02:02:46.948Z,3.16
2022-11-20T02:05:22.102Z,3.18
2022-11-20T02:07:52.184Z,3.20
2022-11-20T02:10:22.039Z,3.24
2022-11-20T02:13:04.311Z,3.27
2022-11-20T02:15:33.927Z,3.29
2022-11-20T02:18:03.583Z,3.27
2022-11-20T02:20:36.003Z,3.23
2022-11-20T02:23:09.124Z,3.16
2022-11-20T02:25:41.780Z,3.11
2022-11-20T02:28:11.642Z,3.10
2022-11-20T02:30:41.203Z,3.12
2022-11-20T02:33:11.038Z,3.12
2022-11-20T02:35:48.128Z,3.12
2022-11-20T02:38:18.360Z,3.10
2022-11-20T02:40:55.324Z,3.11
2022-11-20T02:43:25.363Z,3.11
2022-11-20T02:45:54.959Z,3.10
2022-11-20T02:48:25.348Z,3.05
2022-11-20T02:50:55.004Z,2.91
2022-11-20T02:53:24.536Z,2.73
2022-11-20T02:55:57.081Z,2.50
2022-11-20T02:58:26.765Z,2.27
2022-11-20T03:00:56.404Z,2.05
2022-11-20T03:03:26.512Z,1.85
2022-11-20T03:05:56.038Z,1.69
2022-11-20T03:08:25.594Z,1.57
2022-11-20T03:10:57.901Z,1.45
2022-11-20T03:13:29.065Z,1.35
2022-11-20T03:15:58.633Z,1.32
2022-11-20T03:18:28.247Z,1.35
2022-11-20T03:21:01.104Z,1.46
2022-11-20T03:23:32.957Z,1.59
2022-11-20T03:26:16.374Z,1.75
2022-11-20T03:28:46.552Z,1.88
2022-11-20T03:31:17.921Z,1.98
2022-11-20T03:33:47.811Z,2.08
2022-11-20T03:36:18.730Z,2.16
2022-11-20T03:38:48.476Z,2.25
2022-11-20T03:41:21.905Z,2.26
2022-11-20T03:43:52.084Z,2.23
2022-11-20T03:46:22.373Z,2.18
2022-11-20T03:48:52.435Z,2.16
2022-11-20T03:51:24.191Z,2.18
2022-11-20T03:53:55.299Z,2.25
2022-11-20T03:56:29.246Z,2.30
2022-11-20T03:58:59.048Z,2.32
2022-11-20T04:01:30.491Z,2.39
2022-11-20T04:04:00.670Z,2.47
2022-11-20T04:06:32.622Z,2.56
2022-11-20T04:09:02.465Z,2.64
2022-11-20T04:11:36.422Z,2.72
2022-11-20T04:14:08.692Z,2.78
2022-11-20T04:16:39.522Z,2.82
2022-11-20T04:19:12.815Z,2.84
2022-11-20T04:21:42.482Z,2.88
2022-11-20T04:24:12.237Z,2.93
2022-11-20T04:26:44.466Z,2.95
2022-11-20T04:29:15.187Z,2.99
2022-11-20T04:31:44.770Z,3.01
2022-11-20T04:34:15.877Z,3.07
2022-11-20T04:36:45.434Z,3.08
2022-11-20T04:39:16.320Z,3.11
2022-11-20T04:41:48.454Z,3.13
2022-11-20T04:44:17.989Z,3.15
2022-11-20T04:46:47.604Z,3.17
2022-11-20T04:49:18.200Z,3.18
2022-11-20T04:51:47.802Z,3.17
2022-11-20T04:54:17.377Z,3.16
2022-11-20T04:56:51.265Z,3.14
2022-11-20T04:59:21.095Z,3.13
2022-11-20T05:01:51.148Z,3.15
2022-11-20T05:04:20.999Z,3.17
2022-11-20T05:06:50.538Z,3.18
2022-11-20T05:09:20.374Z,3.19
2022-11-20T05:11:52.749Z,3.20
2022-11-20T05:14:22.276Z,3.20
2022-11-20T05:16:52.140Z,3.19
2022-11-20T05:19:22.101Z,3.16
2022-11-20T05:21:51.791Z,3.16
2022-11-20T05:24:21.291Z,3.18
2022-11-20T05:26:53.402Z,3.17
2022-11-20T05:29:23.309Z,3.16
2022-11-20T05:31:53.098Z,3.15
2022-11-20T05:34:22.653Z,3.15
2022-11-20T05:36:52.404Z,3.16
2022-11-20T05:39:22.073Z,3.15
2022-11-20T05:42:14.354Z,3.15
2022-11-20T05:44:44.003Z,3.15
2022-11-20T05:47:13.613Z,3.14
2022-11-20T05:49:43.160Z,3.15
2022-11-20T05:52:12.807Z,3.18
2022-11-20T05:54:42.380Z,3.20
2022-11-20T05:57:14.571Z,3.24
2022-11-20T05:59:44.316Z,3.26
2022-11-20T06:02:13.909Z,3.28
2022-11-20T06:04:43.737Z,3.30
2022-11-20T06:07:13.351Z,3.32
2022-11-20T06:09:42.911Z,3.34
2022-11-20T06:12:15.034Z,3.35
2022-11-20T06:14:44.543Z,3.37
2022-11-20T06:17:14.077Z,3.40
2022-11-20T06:19:43.589Z,3.39
2022-11-20T06:22:13.153Z,3.41
2022-11-20T06:24:42.703Z,3.41
2022-11-20T06:27:14.886Z,3.43
2022-11-20T06:29:44.453Z,3.42
2022-11-20T06:32:14.009Z,3.42
2022-11-20T06:34:43.579Z,3.41
2022-11-20T06:37:13.099Z,3.42
2022-11-20T06:39:42.683Z,3.43
2022-11-20T06:42:14.864Z,3.44
2022-11-20T06:44:44.663Z,3.45
2022-11-20T06:47:14.212Z,3.46
2022-11-20T06:49:43.816Z,3.44
2022-11-20T06:52:13.359Z,3.38
2022-11-20T06:54:42.940Z,3.29
2022-11-20T06:57:15.484Z,3.15
2022-11-20T06:59:45.091Z,2.97
2022-11-20T07:02:15.349Z,2.78
2022-11-20T07:04:44.914Z,2.59
2022-11-20T07:07:14.493Z,2.41
2022-11-20T07:09:44.069Z,2.24
2022-11-20T07:12:16.177Z,2.08
2022-11-20T07:14:45.735Z,1.95
2022-11-20T07:17:15.658Z,1.84
2022-11-20T07:19:45.260Z,1.75
2022-11-20T07:22:14.835Z,1.67
2022-11-20T07:24:46.146Z,1.62
2022-11-20T07:27:18.435Z,1.58
2022-11-20T07:29:48.005Z,1.53
2022-11-20T07:32:17.797Z,1.53
2022-11-20T07:34:47.471Z,1.52
2022-11-20T07:37:17.703Z,1.53
2022-11-20T07:39:47.430Z,1.60
2022-11-20T07:42:19.619Z,1.68
2022-11-20T07:44:49.383Z,1.72
2022-11-20T07:47:18.918Z,1.83
2022-11-20T07:49:48.482Z,2.08
2022-11-20T07:52:18.047Z,2.32
2022-11-20T07:54:47.640Z,2.53
2022-11-20T07:57:21.227Z,2.79
2022-11-20T07:59:53.883Z,3.05
2022-11-20T08:02:23.500Z,3.18
2022-11-20T08:04:53.112Z,3.31
2022-11-20T08:07:22.817Z,3.44
2022-11-20T08:09:52.568Z,3.59
2022-11-20T08:12:37.532Z,3.70
2022-11-20T08:15:12.917Z,3.91
2022-11-20T08:17:48.912Z,3.98
2022-11-20T08:20:26.519Z,4.12
2022-11-20T08:22:56.276Z,4.29
2022-11-20T08:25:25.829Z,4.37
2022-11-20T08:28:00.368Z,4.39
2022-11-20T08:30:30.895Z,4.38
2022-11-20T08:33:04.846Z,4.34
2022-11-20T08:35:37.378Z,4.29
2022-11-20T08:38:07.626Z,4.27
2022-11-20T08:40:37.462Z,4.23
2022-11-20T08:43:09.657Z,4.20
2022-11-20T08:45:39.303Z,4.18
2022-11-20T08:48:09.342Z,4.17
2022-11-20T08:50:38.883Z,4.16
2022-11-20T08:53:08.800Z,4.18
2022-11-20T08:55:38.378Z,4.21
2022-11-20T08:58:10.595Z,4.23
2022-11-20T09:00:40.208Z,4.23
2022-11-20T09:03:09.771Z,4.24
2022-11-20T09:05:39.407Z,4.26
2022-11-20T09:08:09.054Z,4.30
2022-11-20T09:10:40.676Z,4.34
2022-11-20T09:13:12.800Z,4.36
2022-11-20T09:15:49.783Z,4.34
2022-11-20T09:18:25.033Z,4.35
2022-11-20T09:20:54.891Z,4.39
2022-11-20T09:23:24.505Z,4.46
2022-11-20T09:26:00.704Z,4.52
2022-11-20T09:28:37.883Z,4.62
2022-11-20T09:31:12.079Z,4.68
2022-11-20T09:33:43.570Z,4.68
2022-11-20T09:36:23.981Z,4.63
2022-11-20T09:38:54.902Z,4.61
2022-11-20T09:41:42.440Z,4.61
2022-11-20T09:44:35.949Z,4.64
2022-11-20T09:47:25.563Z,4.64
2022-11-20T09:50:10.094Z,4.64
2022-11-20T09:52:45.697Z,4.66
2022-11-20T09:55:19.265Z,4.73
2022-11-20T09:57:51.985Z,4.90
2022-11-20T10:00:25.034Z,5.15
2022-11-20T10:03:03.783Z,5.44
2022-11-20T10:05:46.188Z,5.66
2022-11-20T10:08:27.776Z,5.85
2022-11-20T10:11:05.675Z,5.97
2022-11-20T10:13:43.982Z,6.10
2022-11-20T10:16:25.263Z,6.28
2022-11-20T10:19:06.292Z,6.43
2022-11-20T10:21:45.022Z,6.53
2022-11-20T10:24:47.264Z,6.56
2022-11-20T10:27:39.762Z,6.61
2022-11-20T10:30:13.432Z,6.71
2022-11-20T10:32:47.681Z,6.80
2022-11-20T10:35:25.836Z,6.80
2022-11-20T10:38:00.049Z,6.73
2022-11-20T10:40:35.313Z,6.63
2022-11-20T10:43:14.100Z,6.44
2022-11-20T10:45:52.218Z,6.31
2022-11-20T10:48:27.392Z,6.20
2022-11-20T10:51:04.136Z,6.12
2022-11-20T10:53:49.106Z,6.02
2022-11-20T10:56:23.768Z,5.93
2022-11-20T10:59:05.094Z,5.86
2022-11-20T11:01:34.747Z,5.80
2022-11-20T11:04:07.495Z,5.71
2022-11-20T11:06:39.564Z,5.66
2022-11-20T11:09:25.290Z,5.64
2022-11-20T11:11:55.212Z,5.61
2022-11-20T11:14:25.616Z,5.55
2022-11-20T11:16:57.014Z,5.48
2022-11-20T11:19:29.414Z,5.39
2022-11-20T11:22:00.526Z,5.31
2022-11-20T11:24:42.338Z,5.21
2022-11-20T11:27:18.873Z,5.11
2022-11-20T11:29:49.116Z,5.05
2022-11-20T11:32:21.656Z,4.98
2022-11-20T11:35:05.392Z,4.93
2022-11-20T11:37:38.411Z,4.91
2022-11-20T11:40:23.851Z,4.91
2022-11-20T11:42:58.736Z,4.90
2022-11-20T11:45:25.833Z,4.88
2022-11-20T11:47:56.657Z,4.91
2022-11-20T11:50:29.736Z,4.99
2022-11-20T11:53:11.193Z,5.03
2022-11-20T11:55:44.621Z,5.02
2022-11-20T11:58:20.167Z,4.98
2022-11-20T12:00:55.422Z,4.96
2022-11-20T12:03:28.429Z,4.92
2022-11-20T12:06:02.495Z,4.95
2022-11-20T12:08:36.603Z,5.04
2022-11-20T12:11:09.549Z,5.15
2022-11-20T12:13:51.211Z,5.31
2022-11-20T12:16:23.198Z,5.42
2022-11-20T12:18:54.966Z,5.52
2022-11-20T12:21:34.639Z,5.62
2022-11-20T12:24:14.271Z,5.67
2022-11-20T12:26:53.207Z,5.67
2022-11-20T12:29:31.384Z,5.69
2022-11-20T12:32:15.711Z,5.66
2022-11-20T12:34:54.652Z,5.62
2022-11-20T12:37:37.285Z,5.60
2022-11-20T12:40:19.828Z,5.63
2022-11-20T12:43:09.589Z,5.65
2022-11-20T12:45:54.304Z,5.68
2022-11-20T12:48:59.435Z,5.72
2022-11-20T12:51:32.733Z,5.70
2022-11-20T12:54:22.166Z,5.69
2022-11-20T12:57:00.797Z,5.66
2022-11-20T12:59:43.135Z,5.66
2022-11-20T13:02:19.587Z,5.63
2022-11-20T13:04:59.935Z,5.61
2022-11-20T13:07:31.228Z,5.61
2022-11-20T13:10:07.580Z,5.63
2022-11-20T13:12:44.329Z,5.66
2022-11-20T13:15:26.476Z,5.65
2022-11-20T13:17:58.427Z,5.64
2022-11-20T13:20:28.058Z,5.63
2022-11-20T13:22:59.795Z,5.65
2022-11-20T13:25:33.823Z,5.67
2022-11-20T13:28:05.411Z,5.65
2022-11-20T13:30:35.506Z,5.58
2022-11-20T13:33:09.990Z,5.53
2022-11-20T13:35:40.577Z,5.46
2022-11-20T13:38:12.281Z,5.38
2022-11-20T13:40:55.717Z,5.34
2022-11-20T13:43:37.823Z,5.25
2022-11-20T13:46:08.995Z,5.17
2022-11-20T13:48:43.795Z,5.13
2022-11-20T13:51:24.674Z,5.12
2022-11-20T13:54:11.083Z,5.12
2022-11-20T13:56:52.495Z,5.12
2022-11-20T13:59:35.969Z,5.14
2022-11-20T14:02:05.905Z,5.16
2022-11-20T14:04:37.769Z,5.21
2022-11-20T14:07:09.748Z,5.19
2022-11-20T14:09:39.666Z,5.18
2022-11-20T14:12:20.699Z,5.17
2022-11-20T14:14:55.410Z,5.15
2022-11-20T14:17:27.160Z,5.14
2022-11-20T14:19:57.101Z,5.12
2022-11-20T14:22:28.835Z,5.11
2022-11-20T14:25:19.095Z,5.08
2022-11-20T14:27:55.158Z,5.08
2022-11-20T14:30:26.215Z,5.08
2022-11-20T14:32:58.348Z,5.10
2022-11-20T14:35:29.579Z,5.11
2022-11-20T14:37:59.725Z,5.12
2022-11-20T14:40:32.538Z,5.11
2022-11-20T14:43:04.813Z,5.09
2022-11-20T14:45:34.472Z,5.10
2022-11-20T14:48:04.216Z,5.11
2022-11-20T14:50:34.405Z,5.12
2022-11-20T14:53:04.824Z,5.12
2022-11-20T14:55:36.494Z,5.10
2022-11-20T14:58:10.247Z,5.08
2022-11-20T15:00:39.854Z,5.08
2022-11-20T15:03:19.202Z,5.08
2022-11-20T15:05:51.383Z,5.08
2022-11-20T15:08:21.552Z,5.07
2022-11-20T15:10:53.215Z,5.03
2022-11-20T15:13:30.092Z,5.01
2022-11-20T15:16:00.321Z,5.00
2022-11-20T15:18:33.061Z,5.00
2022-11-20T15:21:05.154Z,4.99
2022-11-20T15:23:34.760Z,4.99
2022-11-20T15:26:04.338Z,4.97
2022-11-20T15:28:38.254Z,4.95
2022-11-20T15:31:08.426Z,4.95
2022-11-20T15:33:38.027Z,4.92
2022-11-20T15:36:08.543Z,4.88
2022-11-20T15:38:38.164Z,4.84
2022-11-20T15:41:08.123Z,4.81
2022-11-20T15:43:40.390Z,4.80
2022-11-20T15:46:13.546Z,4.82
2022-11-20T15:48:48.287Z,4.81
2022-11-20T15:51:25.679Z,4.78
2022-11-20T15:53:55.401Z,4.71
2022-11-20T15:56:24.988Z,4.67
2022-11-20T15:58:57.223Z,4.63
2022-11-20T16:01:26.864Z,4.60
2022-11-20T16:03:56.481Z,4.57
2022-11-20T16:06:26.045Z,4.52
2022-11-20T16:08:55.653Z,4.49
2022-11-20T16:11:25.207Z,4.45
2022-11-20T16:14:09.799Z,4.43
2022-11-20T16:16:41.464Z,4.41
2022-11-20T16:19:14.003Z,4.37
2022-11-20T16:21:44.022Z,4.36
2022-11-20T16:24:14.860Z,4.37
2022-11-20T16:26:44.578Z,4.39
2022-11-20T16:29:17.563Z,4.39
2022-11-20T16:31:47.367Z,4.41
2022-11-20T16:34:19.905Z,4.43
2022-11-20T16:36:49.717Z,4.45
2022-11-20T16:39:23.684Z,4.45
2022-11-20T16:41:53.811Z,4.47
2022-11-20T16:44:26.323Z,4.49
2022-11-20T16:46:56.275Z,4.50
2022-11-20T16:49:26.197Z,4.49
2022-11-20T16:51:55.796Z,4.51
2022-11-20T16:54:25.797Z,4.51
2022-11-20T16:56:55.552Z,4.52
2022-11-20T16:59:27.740Z,4.53
2022-11-20T17:01:57.500Z,4.55
2022-11-20T17:04:27.107Z,4.57
2022-11-20T17:06:57.006Z,4.60
2022-11-20T17:09:26.844Z,4.62
2022-11-20T17:11:56.579Z,4.65
2022-11-20T17:14:28.728Z,4.66
2022-11-20T17:16:58.493Z,4.68
2022-11-20T17:19:28.333Z,4.70
2022-11-20T17:21:58.085Z,4.73
2022-11-20T17:24:31.838Z,4.76
2022-11-20T17:27:01.722Z,4.78
2022-11-20T17:29:39.165Z,4.79
2022-11-20T17:32:11.607Z,4.80
2022-11-20T17:34:41.217Z,4.79
2022-11-20T17:37:10.769Z,4.79
2022-11-20T17:39:40.971Z,4.78
2022-11-20T17:42:23.000Z,4.77
2022-11-20T17:44:55.312Z,4.78
2022-11-20T17:47:24.916Z,4.79
2022-11-20T17:49:55.460Z,4.79
2022-11-20T17:52:25.297Z,4.79
2022-11-20T17:54:56.084Z,4.79
2022-11-20T17:57:38.418Z,4.80
2022-11-20T18:00:13.309Z,4.81
2022-11-20T18:02:42.936Z,4.81
2022-11-20T18:05:12.617Z,4.82
2022-11-20T18:07:42.604Z,4.87
2022-11-20T18:10:13.036Z,4.90
2022-11-20T18:12:42.617Z,4.90
2022-11-20T18:15:15.281Z,4.91
2022-11-20T18:17:44.846Z,4.91
2022-11-20T18:20:28.609Z,4.91
2022-11-20T18:23:02.408Z,4.91
2022-11-20T18:25:32.001Z,4.94
2022-11-20T18:28:01.596Z,4.96
2022-11-20T18:30:33.779Z,4.99
2022-11-20T18:33:04.030Z,5.01
2022-11-20T18:35:36.378Z,5.05
2022-11-20T18:38:05.995Z,5.11
2022-11-20T18:40:37.533Z,5.17
2022-11-20T18:43:19.582Z,5.21
2022-11-20T18:45:52.640Z,5.23
2022-11-20T18:48:22.299Z,5.27
2022-11-20T18:50:52.012Z,5.30
2022-11-20T18:53:22.063Z,5.33
2022-11-20T18:55:51.976Z,5.37
2022-11-20T18:58:21.623Z,5.41
2022-11-20T19:00:53.771Z,5.45
2022-11-20T19:03:23.535Z,5.51
2022-11-20T19:05:53.332Z,5.55
2022-11-20T19:08:22.911Z,5.59
2022-11-20T19:10:52.482Z,5.66
2022-11-20T19:13:22.285Z,5.71
2022-11-20T19:15:54.609Z,5.74
2022-11-20T19:18:24.396Z,5.80
2022-11-20T19:20:53.968Z,5.85
2022-11-20T19:23:23.937Z,5.89
2022-11-20T19:25:56.131Z,5.93
2022-11-20T19:28:25.731Z,5.97
2022-11-20T19:30:58.144Z,5.99
2022-11-20T19:33:28.052Z,5.99
2022-11-20T19:36:00.808Z,5.99
2022-11-20T19:38:30.511Z,5.99
2022-11-20T19:41:00.643Z,6.00
2022-11-20T19:43:30.341Z,6.00
2022-11-20T19:46:02.825Z,6.01
2022-11-20T19:48:33.955Z,6.03
2022-11-20T19:51:11.602Z,6.07
2022-11-20T19:53:41.439Z,6.11
2022-11-20T19:56:11.106Z,6.17
2022-11-20T19:58:41.832Z,6.21
2022-11-20T20:01:16.955Z,6.25
2022-11-20T20:03:47.483Z,6.30
2022-11-20T20:06:18.832Z,6.35
2022-11-20T20:08:48.558Z,6.40
2022-11-20T20:11:20.047Z,6.45
2022-11-20T20:13:50.099Z,6.48
2022-11-20T20:16:24.402Z,6.52
2022-11-20T20:18:56.698Z,6.55
2022-11-20T20:21:26.347Z,6.57
2022-11-20T20:23:56.937Z,6.59
2022-11-20T20:26:27.471Z,6.63
2022-11-20T20:28:57.294Z,6.67
2022-11-20T20:31:30.828Z,6.70
2022-11-20T20:34:00.525Z,6.72
2022-11-20T20:36:30.829Z,6.74
2022-11-20T20:39:02.841Z,6.78
2022-11-20T20:41:32.720Z,6.82
2022-11-20T20:44:14.789Z,6.84
2022-11-20T20:46:47.013Z,6.85
2022-11-20T20:49:16.747Z,6.86
2022-11-20T20:51:46.362Z,6.89
2022-11-20T20:54:16.022Z,6.90
2022-11-20T20:56:45.647Z,6.92
2022-11-20T20:59:15.180Z,6.93
2022-11-20T21:01:47.420Z,6.93
2022-11-20T21:04:17.174Z,6.94
2022-11-20T21:06:46.813Z,6.97
2022-11-20T21:09:16.369Z,7.00
2022-11-20T21:11:45.987Z,7.00
2022-11-20T21:14:15.551Z,7.02
2022-11-20T21:16:47.982Z,7.04
2022-11-20T21:19:17.955Z,7.06
2022-11-20T21:21:59.802Z,7.05
2022-11-20T21:24:29.956Z,7.06
2022-11-20T21:27:00.392Z,7.07
2022-11-20T21:29:31.462Z,7.09
2022-11-20T21:32:03.689Z,7.11
2022-11-20T21:34:33.360Z,7.11
2022-11-20T21:37:02.954Z,7.13
2022-11-20T21:39:33.055Z,7.14
2022-11-20T21:42:02.604Z,7.14
2022-11-20T21:44:32.313Z,7.15
2022-11-20T21:47:04.597Z,7.16
2022-11-20T21:49:34.240Z,7.17
2022-11-20T21:52:04.028Z,7.17
2022-11-20T21:54:35.755Z,7.16
2022-11-20T21:57:05.323Z,7.16
2022-11-20T21:59:34.901Z,7.16
2022-11-20T22:02:07.961Z,7.16
2022-11-20T22:04:37.595Z,7.16
2022-11-20T22:07:08.584Z,7.15
2022-11-20T22:09:38.169Z,7.15
2022-11-20T22:12:09.968Z,7.15
2022-11-20T22:14:36.939Z,7.13
2022-11-20T22:17:09.187Z,7.14
2022-11-20T22:19:38.765Z,7.11
2022-11-20T22:22:08.330Z,7.10
2022-11-20T22:24:37.960Z,7.06
2022-11-20T22:27:07.548Z,7.02
2022-11-20T22:29:37.181Z,6.97
2022-11-20T22:32:09.366Z,6.92
2022-11-20T22:34:38.920Z,6.88
2022-11-20T22:37:08.496Z,6.85
2022-11-20T22:39:39.453Z,6.84
2022-11-20T22:42:09.024Z,6.81
2022-11-20T22:44:38.625Z,6.79
2022-11-20T22:47:11.624Z,6.78
2022-11-20T22:49:41.339Z,6.76
2022-11-20T22:52:11.076Z,6.74
2022-11-20T22:54:40.775Z,6.74
2022-11-20T22:57:10.369Z,6.72
2022-11-20T22:59:40.729Z,6.72
2022-11-20T23:02:12.936Z,6.72
2022-11-20T23:04:42.494Z,6.73
2022-11-20T23:07:12.221Z,6.74
2022-11-20T23:09:41.796Z,6.75
2022-11-20T23:12:11.397Z,6.76
2022-11-20T23:14:40.953Z,6.76
2022-11-20T23:17:13.519Z,6.76
2022-11-20T23:19:43.095Z,6.76
2022-11-20T23:22:12.749Z,6.76
2022-11-20T23:24:42.421Z,6.74
2022-11-20T23:27:12.176Z,6.71
2022-11-20T23:29:41.775Z,6.67
2022-11-20T23:32:13.995Z,6.63
2022-11-20T23:34:43.593Z,6.58
2022-11-20T23:37:13.148Z,6.55
2022-11-20T23:39:42.714Z,6.52
2022-11-20T23:42:13.914Z,6.53
2022-11-20T23:44:43.631Z,6.51
2022-11-20T23:47:15.873Z,6.49
2022-11-20T23:49:45.446Z,6.48
2022-11-20T23:52:15.240Z,6.46
2022-11-20T23:54:44.848Z,6.46
2022-11-20T23:57:14.399Z,6.46
2022-11-20T23:59:44.043Z,6.46
